Time;durP1;ratioP1;P1;durP2;ratioP2;P2;SDS_P1;SDS_P2;PMS_P1;PMS_P2;Temp;Humidity;BMP_temperature;BMP_pressure;BME280_temperature;BME280_humidity;BME280_pressure;Samples;Min_cycle;Max_cycle;Signal;HPM_P1;HPM_P2
2022/04/13 00:01:37;;;;;;;3.50;1.50;;;;;;;;;;8199481;28;20039;-69
2022/04/13 00:05:37;;;;;;;5.73;2.37;;;;;;;;;;8202249;28;20035;-70
2022/04/13 00:09:38;;;;;;;4.73;2.57;;;;;;;;;;8201670;28;20257;-70
2022/04/13 00:13:38;;;;;;;8.43;3.20;;;;;;;;;;8202230;28;20384;-70
2022/04/13 00:17:38;;;;;;;7.78;3.08;;;;;;;;;;8208066;28;20279;-69
2022/04/13 00:21:38;;;;;;;8.90;3.75;;;;;;;;;;8205636;28;20571;-70
2022/04/13 00:25:41;;;;;;;8.52;3.60;;;;;;;;;;8206756;28;20489;-70
2022/04/13 00:29:41;;;;;;;7.75;3.20;;;;;;;;;;8204946;28;20026;-70
2022/04/13 00:33:41;;;;;;;7.15;2.85;;;;;;;;;;8206162;28;20085;-70
2022/04/13 00:37:42;;;;;;;8.93;3.58;;;;;;;;;;8207696;28;20459;-70
2022/04/13 00:41:43;;;;;;;8.63;3.77;;;;;;;;;;8206336;28;20122;-70
2022/04/13 00:45:44;;;;;;;9.13;3.78;;;;;;;;;;8206108;28;20030;-70
2022/04/13 00:49:44;;;;;;;7.40;3.17;;;;;;;;;;8207186;28;20030;-69
2022/04/13 00:53:45;;;;;;;5.53;2.67;;;;;;;;;;8205916;28;20113;-70
2022/04/13 00:57:45;;;;;;;4.25;2.10;;;;;;;;;;8205928;28;20110;-69
2022/04/13 01:01:47;;;;;;;4.13;2.47;;;;;;;;;;8205037;28;20047;-69
2022/04/13 01:05:48;;;;;;;4.00;2.30;;;;;;;;;;8204211;28;20039;-69
2022/04/13 01:09:49;;;;;;;3.28;2.30;;;;;;;;;;8201963;28;20033;-69
2022/04/13 01:13:53;;;;;;;2.88;2.20;;;;;;;;;;8204591;28;20023;-69
2022/04/13 01:17:54;;;;;;;3.72;2.20;;;;;;;;;;8204503;28;20930;-69
2022/04/13 01:21:58;;;;;;;2.42;1.77;;;;;;;;;;8209384;28;20037;-69
2022/04/13 01:25:59;;;;;;;6.28;1.60;;;;;;;;;;8209391;28;20026;-69
2022/04/13 01:29:59;;;;;;;2.67;1.45;;;;;;;;;;8208589;28;20057;-69
2022/04/13 01:33:59;;;;;;;2.40;1.58;;;;;;;;;;8204496;28;20063;-70
2022/04/13 01:38:00;;;;;;;3.20;1.33;;;;;;;;;;8201238;28;20023;-69
2022/04/13 01:42:00;;;;;;;2.00;1.27;;;;;;;;;;8203397;28;20038;-69
2022/04/13 01:46:00;;;;;;;1.52;1.27;;;;;;;;;;8202838;28;20548;-70
2022/04/13 01:50:00;;;;;;;1.40;1.20;;;;;;;;;;8204900;28;20575;-70
2022/04/13 01:54:00;;;;;;;1.17;1.08;;;;;;;;;;8203753;28;20027;-70
2022/04/13 01:58:01;;;;;;;5.38;1.25;;;;;;;;;;8204044;28;20396;-69
2022/04/13 02:02:04;;;;;;;1.52;1.10;;;;;;;;;;8202863;28;20046;-69
2022/04/13 02:06:04;;;;;;;1.60;1.30;;;;;;;;;;8204778;28;20026;-70
2022/04/13 02:10:05;;;;;;;3.53;1.42;;;;;;;;;;8202791;28;20117;-70
2022/04/13 02:14:05;;;;;;;3.05;1.30;;;;;;;;;;8201388;28;20023;-69
2022/04/13 02:18:06;;;;;;;2.28;1.20;;;;;;;;;;8203041;28;20042;-69
2022/04/13 02:22:07;;;;;;;3.28;1.45;;;;;;;;;;8203288;28;20497;-69
2022/04/13 02:26:07;;;;;;;2.67;1.20;;;;;;;;;;8202540;28;20039;-69
2022/04/13 02:30:08;;;;;;;4.75;1.15;;;;;;;;;;8202060;28;20105;-69
2022/04/13 02:34:08;;;;;;;3.28;1.30;;;;;;;;;;8202293;28;20050;-69
2022/04/13 02:38:09;;;;;;;5.53;2.85;;;;;;;;;;8203736;28;20026;-69
2022/04/13 02:42:12;;;;;;;4.30;2.10;;;;;;;;;;8201528;28;20038;-70
2022/04/13 02:46:12;;;;;;;6.25;2.42;;;;;;;;;;8202021;28;20081;-69
2022/04/13 02:50:12;;;;;;;4.68;2.10;;;;;;;;;;8203323;28;20030;-69
2022/04/13 02:54:12;;;;;;;4.70;1.67;;;;;;;;;;8202962;28;20026;-69
2022/04/13 02:58:13;;;;;;;7.13;2.00;;;;;;;;;;8200703;28;20027;-69
2022/04/13 03:02:16;;;;;;;3.53;2.00;;;;;;;;;;8200351;28;20066;-69
2022/04/13 03:06:16;;;;;;;5.87;1.90;;;;;;;;;;8202869;28;20042;-69
2022/04/13 03:10:16;;;;;;;4.55;1.80;;;;;;;;;;8200107;28;20054;-69
2022/04/13 03:14:17;;;;;;;2.83;1.90;;;;;;;;;;8201689;28;20105;-69
2022/04/13 03:18:17;;;;;;;5.28;2.35;;;;;;;;;;8202241;28;20049;-69
2022/04/13 03:22:17;;;;;;;3.60;2.15;;;;;;;;;;8200929;28;20045;-68
2022/04/13 03:26:17;;;;;;;4.70;2.20;;;;;;;;;;8201840;28;20027;-69
2022/04/13 03:30:18;;;;;;;3.25;1.80;;;;;;;;;;8201229;28;20031;-70
2022/04/13 03:34:20;;;;;;;8.13;1.80;;;;;;;;;;8200992;28;20063;-69
2022/04/13 03:38:20;;;;;;;5.25;2.00;;;;;;;;;;8201137;28;20086;-69
2022/04/13 03:42:21;;;;;;;7.80;1.97;;;;;;;;;;8199992;28;20088;-69
2022/04/13 03:46:21;;;;;;;3.25;1.85;;;;;;;;;;8199145;28;20263;-69
2022/04/13 03:50:21;;;;;;;12.27;1.73;;;;;;;;;;8210130;28;20034;-69
2022/04/13 03:54:21;;;;;;;2.83;1.47;;;;;;;;;;8207079;28;20035;-69
2022/04/13 03:58:21;;;;;;;3.03;1.75;;;;;;;;;;8204250;28;20294;-69
2022/04/13 04:02:22;;;;;;;4.20;1.50;;;;;;;;;;8204156;28;20089;-69
2022/04/13 04:06:23;;;;;;;2.90;1.33;;;;;;;;;;8207950;28;20058;-69
2022/04/13 04:10:24;;;;;;;2.67;1.40;;;;;;;;;;8203953;28;20026;-69
2022/04/13 04:14:24;;;;;;;2.47;1.40;;;;;;;;;;8205580;28;20023;-69
2022/04/13 04:18:24;;;;;;;3.95;1.30;;;;;;;;;;8210084;28;20034;-68
2022/04/13 04:22:25;;;;;;;4.80;1.50;;;;;;;;;;8204728;28;20073;-69
2022/04/13 04:26:25;;;;;;;3.22;1.73;;;;;;;;;;8206113;28;20378;-69
2022/04/13 04:30:26;;;;;;;6.78;2.35;;;;;;;;;;8204490;28;20039;-69
2022/04/13 04:34:26;;;;;;;3.83;2.28;;;;;;;;;;8206443;28;20037;-69
2022/04/13 04:38:32;;;;;;;6.33;1.50;;;;;;;;;;8206373;28;20503;-69
2022/04/13 04:42:54;;;;;;;6.43;1.60;;;;;;;;;;8202308;28;20815;-70
2022/04/13 04:46:54;;;;;;;2.10;1.20;;;;;;;;;;8204418;28;20043;-69
2022/04/13 04:50:54;;;;;;;4.15;1.52;;;;;;;;;;8203152;28;20041;-70
2022/04/13 04:54:55;;;;;;;5.15;1.52;;;;;;;;;;8205134;28;20122;-70
2022/04/13 04:58:55;;;;;;;3.90;1.25;;;;;;;;;;8204377;28;20058;-69
2022/04/13 05:02:56;;;;;;;2.53;1.50;;;;;;;;;;8202847;28;20093;-69
2022/04/13 05:06:56;;;;;;;2.38;1.25;;;;;;;;;;8196760;28;20033;-68
2022/04/13 05:10:56;;;;;;;2.95;1.30;;;;;;;;;;8197945;28;20089;-68
2022/04/13 05:14:56;;;;;;;6.95;1.70;;;;;;;;;;8195910;28;21413;-68
2022/04/13 05:18:56;;;;;;;3.88;1.60;;;;;;;;;;8196678;28;20397;-68
2022/04/13 05:22:57;;;;;;;7.10;1.75;;;;;;;;;;8194832;28;20080;-68
2022/04/13 05:26:57;;;;;;;6.43;1.60;;;;;;;;;;8195733;28;20054;-68
2022/04/13 05:30:57;;;;;;;6.07;1.50;;;;;;;;;;8197281;28;20039;-68
2022/04/13 05:35:01;;;;;;;7.35;1.45;;;;;;;;;;8196101;28;20065;-68
2022/04/13 05:39:01;;;;;;;2.35;1.42;;;;;;;;;;8195585;28;20054;-68
2022/04/13 05:43:01;;;;;;;4.93;1.30;;;;;;;;;;8195153;28;20026;-68
2022/04/13 05:47:02;;;;;;;4.70;1.60;;;;;;;;;;8196393;28;20384;-68
2022/04/13 05:51:02;;;;;;;3.88;1.50;;;;;;;;;;8194797;28;20369;-68
2022/04/13 05:55:03;;;;;;;2.05;1.20;;;;;;;;;;8194827;28;20061;-69
2022/04/13 05:59:03;;;;;;;4.45;1.38;;;;;;;;;;8195589;28;20037;-68
2022/04/13 06:03:03;;;;;;;5.10;1.40;;;;;;;;;;8193532;28;20519;-69
2022/04/13 06:07:03;;;;;;;5.72;1.52;;;;;;;;;;8195262;28;20262;-69
2022/04/13 06:11:03;;;;;;;1.58;1.30;;;;;;;;;;8194394;28;20033;-69
2022/04/13 06:15:05;;;;;;;5.65;1.90;;;;;;;;;;8192658;28;20031;-69
2022/04/13 06:19:05;;;;;;;7.63;1.77;;;;;;;;;;8193922;28;20045;-69
2022/04/13 06:23:05;;;;;;;5.45;2.97;;;;;;;;;;8193230;28;20537;-69
2022/04/13 06:27:05;;;;;;;7.07;2.72;;;;;;;;;;8190540;28;20022;-69
2022/04/13 06:31:06;;;;;;;5.78;2.65;;;;;;;;;;8189586;28;20038;-69
2022/04/13 06:35:07;;;;;;;6.28;2.50;;;;;;;;;;8195267;28;20104;-69
2022/04/13 06:39:07;;;;;;;10.05;2.80;;;;;;;;;;8193020;28;20451;-69
2022/04/13 06:43:07;;;;;;;5.13;1.90;;;;;;;;;;8195158;28;20015;-69
2022/04/13 06:47:08;;;;;;;3.08;1.60;;;;;;;;;;8191647;28;20038;-69
2022/04/13 06:51:08;;;;;;;6.00;1.80;;;;;;;;;;8195019;28;20029;-69
2022/04/13 06:55:11;;;;;;;4.15;1.60;;;;;;;;;;8197841;28;20085;-69
2022/04/13 06:59:11;;;;;;;3.03;1.45;;;;;;;;;;8192290;28;20700;-69
2022/04/13 07:03:11;;;;;;;4.82;1.98;;;;;;;;;;8188306;28;20098;-69
2022/04/13 07:07:11;;;;;;;6.18;1.70;;;;;;;;;;8192866;28;20034;-69
2022/04/13 07:11:12;;;;;;;4.40;1.50;;;;;;;;;;8191942;28;20042;-69
2022/04/13 07:15:16;;;;;;;5.32;2.10;;;;;;;;;;8190507;28;20513;-69
2022/04/13 07:19:17;;;;;;;7.72;1.85;;;;;;;;;;8192183;28;20026;-69
2022/04/13 07:23:17;;;;;;;5.53;1.58;;;;;;;;;;8192184;28;20030;-69
2022/04/13 07:27:18;;;;;;;7.10;1.77;;;;;;;;;;8192902;28;20091;-69
2022/04/13 07:31:19;;;;;;;7.40;1.73;;;;;;;;;;8191005;28;20266;-69
2022/04/13 07:35:19;;;;;;;6.40;3.45;;;;;;;;;;8192002;28;20823;-69
2022/04/13 07:39:19;;;;;;;9.25;2.97;;;;;;;;;;8190688;28;20038;-69
2022/04/13 07:43:20;;;;;;;4.78;2.83;;;;;;;;;;8190155;28;20669;-69
2022/04/13 07:47:21;;;;;;;3.28;2.05;;;;;;;;;;8192146;28;20042;-69
2022/04/13 07:51:21;;;;;;;9.13;2.50;;;;;;;;;;8190125;28;20813;-69
2022/04/13 07:55:21;;;;;;;5.32;2.22;;;;;;;;;;8189195;28;20046;-69
2022/04/13 07:59:22;;;;;;;4.95;2.63;;;;;;;;;;8190719;28;20031;-69
2022/04/13 08:03:22;;;;;;;4.77;2.80;;;;;;;;;;8191846;28;20644;-69
2022/04/13 08:07:22;;;;;;;5.43;2.00;;;;;;;;;;8200418;28;20836;-69
2022/04/13 08:11:23;;;;;;;10.02;2.67;;;;;;;;;;8191138;28;20042;-69
2022/04/13 08:15:24;;;;;;;5.05;1.85;;;;;;;;;;8190251;28;20043;-69
2022/04/13 08:19:24;;;;;;;8.27;2.35;;;;;;;;;;8191798;28;20584;-69
2022/04/13 08:23:24;;;;;;;4.05;2.10;;;;;;;;;;8191049;28;20029;-69
2022/04/13 08:27:24;;;;;;;3.93;1.87;;;;;;;;;;8191705;28;20069;-69
2022/04/13 08:31:24;;;;;;;4.20;1.98;;;;;;;;;;8189379;28;20306;-70
2022/04/13 08:35:25;;;;;;;10.15;1.83;;;;;;;;;;8191868;28;20503;-69
2022/04/13 08:39:26;;;;;;;8.98;2.22;;;;;;;;;;8198603;28;20034;-69
2022/04/13 08:43:32;;;;;;;8.60;2.08;;;;;;;;;;8194304;28;20031;-69
2022/04/13 08:47:35;;;;;;;5.85;2.13;;;;;;;;;;8194595;28;20910;-69
2022/04/13 08:51:35;;;;;;;2.63;1.70;;;;;;;;;;8192524;28;20038;-70
2022/04/13 08:55:37;;;;;;;7.68;2.10;;;;;;;;;;8196023;28;20031;-69
2022/04/13 08:59:55;;;;;;;3.60;1.92;;;;;;;;;;8191894;28;20742;-69
2022/04/13 09:03:57;;;;;;;5.13;1.95;;;;;;;;;;8196341;28;20105;-69
2022/04/13 09:08:05;;;;;;;3.78;2.05;;;;;;;;;;8195929;28;20038;-69
2022/04/13 09:12:06;;;;;;;4.63;1.75;;;;;;;;;;8195507;28;20026;-69
2022/04/13 09:16:07;;;;;;;7.82;2.00;;;;;;;;;;8195840;28;20046;-69
2022/04/13 09:20:07;;;;;;;4.78;1.70;;;;;;;;;;8195564;28;20035;-69
2022/04/13 09:24:08;;;;;;;4.25;1.70;;;;;;;;;;8196546;28;20031;-69
2022/04/13 09:28:08;;;;;;;8.00;2.00;;;;;;;;;;8195063;28;20117;-68
2022/04/13 09:32:09;;;;;;;6.70;1.75;;;;;;;;;;8195314;28;20402;-69
2022/04/13 09:36:09;;;;;;;4.07;1.75;;;;;;;;;;8193071;28;20023;-69
2022/04/13 09:40:10;;;;;;;5.05;1.75;;;;;;;;;;8193862;28;20019;-69
2022/04/13 09:44:12;;;;;;;7.80;1.90;;;;;;;;;;8208185;28;20037;-69
2022/04/13 09:48:16;;;;;;;4.18;2.03;;;;;;;;;;8192258;28;20026;-69
2022/04/13 09:52:16;;;;;;;8.00;2.75;;;;;;;;;;8194591;28;20039;-69
2022/04/13 09:56:17;;;;;;;3.90;2.80;;;;;;;;;;8196329;28;20121;-69
2022/04/13 10:00:17;;;;;;;7.00;2.92;;;;;;;;;;8194355;28;20141;-69
2022/04/13 10:04:23;;;;;;;9.07;3.10;;;;;;;;;;8194006;28;20062;-69
2022/04/13 10:08:24;;;;;;;6.20;3.72;;;;;;;;;;8194829;28;20023;-69
2022/04/13 10:12:25;;;;;;;5.03;3.03;;;;;;;;;;8192663;28;20504;-69
2022/04/13 10:16:30;;;;;;;5.13;3.20;;;;;;;;;;8195045;28;20457;-69
2022/04/13 10:20:42;;;;;;;7.35;3.33;;;;;;;;;;8193089;28;20049;-69
2022/04/13 10:24:43;;;;;;;16.33;3.42;;;;;;;;;;8193472;28;20550;-69
2022/04/13 10:28:47;;;;;;;4.68;2.90;;;;;;;;;;8193633;28;20423;-69
2022/04/13 10:32:55;;;;;;;7.15;2.80;;;;;;;;;;8191954;28;20065;-69
2022/04/13 10:36:55;;;;;;;5.95;3.13;;;;;;;;;;8191386;28;20033;-69
2022/04/13 10:40:56;;;;;;;8.63;2.90;;;;;;;;;;8192809;28;20031;-69
2022/04/13 10:45:03;;;;;;;7.00;2.78;;;;;;;;;;8193786;28;20026;-69
2022/04/13 10:49:07;;;;;;;6.03;2.83;;;;;;;;;;8193024;28;20989;-69
2022/04/13 10:53:14;;;;;;;7.25;3.10;;;;;;;;;;8192587;28;20882;-68
2022/04/13 10:57:15;;;;;;;7.05;3.33;;;;;;;;;;8191731;28;20538;-69
2022/04/13 11:01:18;;;;;;;11.68;3.00;;;;;;;;;;8189958;28;20567;-68
2022/04/13 11:05:18;;;;;;;6.75;3.30;;;;;;;;;;8191868;28;20027;-68
2022/04/13 11:09:26;;;;;;;7.50;3.10;;;;;;;;;;8193061;28;20143;-68
2022/04/13 11:13:30;;;;;;;6.65;3.00;;;;;;;;;;8191643;28;20082;-68
2022/04/13 11:17:30;;;;;;;7.13;3.08;;;;;;;;;;8189531;28;20035;-68
2022/04/13 11:21:34;;;;;;;6.10;2.80;;;;;;;;;;8191369;28;20021;-69
2022/04/13 11:25:58;;;;;;;5.93;3.10;;;;;;;;;;8193571;28;20026;-69
2022/04/13 11:30:00;;;;;;;7.18;3.50;;;;;;;;;;8191069;28;20088;-69
2022/04/13 11:34:05;;;;;;;7.65;4.18;;;;;;;;;;8190599;28;20062;-69
2022/04/13 11:38:06;;;;;;;11.65;4.05;;;;;;;;;;8192134;28;20544;-69
2022/04/13 11:42:13;;;;;;;6.30;3.90;;;;;;;;;;8190441;28;20030;-68
2022/04/13 11:46:32;;;;;;;6.18;4.20;;;;;;;;;;8192184;28;20114;-69
2022/04/13 11:50:37;;;;;;;6.95;3.70;;;;;;;;;;8189494;28;20093;-69
2022/04/13 11:54:45;;;;;;;6.07;3.60;;;;;;;;;;8190867;28;20038;-69
2022/04/13 11:58:45;;;;;;;10.35;3.92;;;;;;;;;;8190969;28;20027;-68
2022/04/13 12:02:46;;;;;;;10.23;3.85;;;;;;;;;;8188868;28;20050;-69
2022/04/13 12:06:47;;;;;;;7.25;3.35;;;;;;;;;;8190957;28;20060;-69
2022/04/13 12:10:48;;;;;;;6.90;3.70;;;;;;;;;;8193261;28;20073;-69
2022/04/13 12:14:54;;;;;;;7.93;3.90;;;;;;;;;;8193426;28;20696;-68
2022/04/13 12:18:59;;;;;;;8.68;3.38;;;;;;;;;;8195582;28;20035;-68
2022/04/13 12:23:13;;;;;;;6.88;3.03;;;;;;;;;;8195332;28;20044;-69
2022/04/13 12:27:13;;;;;;;3.90;3.03;;;;;;;;;;8196418;28;20042;-69
2022/04/13 12:31:13;;;;;;;7.25;3.05;;;;;;;;;;8198217;28;20051;-69
2022/04/13 12:35:14;;;;;;;6.30;3.00;;;;;;;;;;8195613;28;20128;-69
2022/04/13 12:39:15;;;;;;;7.50;2.70;;;;;;;;;;8195956;28;20038;-69
2022/04/13 12:43:25;;;;;;;6.53;2.50;;;;;;;;;;8196587;28;20029;-69
2022/04/13 12:47:25;;;;;;;10.82;2.85;;;;;;;;;;8194529;28;21042;-69
2022/04/13 12:51:30;;;;;;;4.97;3.03;;;;;;;;;;8194646;28;20039;-69
2022/04/13 12:55:32;;;;;;;9.55;2.75;;;;;;;;;;8195589;28;20403;-68
2022/04/13 12:59:34;;;;;;;4.75;2.40;;;;;;;;;;8194685;28;20945;-68
2022/04/13 13:03:36;;;;;;;5.97;2.03;;;;;;;;;;8196475;28;20035;-68
2022/04/13 13:07:36;;;;;;;4.88;2.25;;;;;;;;;;8195947;28;20034;-69
2022/04/13 13:11:37;;;;;;;4.50;2.10;;;;;;;;;;8195009;28;20129;-69
2022/04/13 13:15:37;;;;;;;6.53;1.90;;;;;;;;;;8196771;28;20114;-69
2022/04/13 13:19:38;;;;;;;5.53;2.00;;;;;;;;;;8196718;28;20114;-69
2022/04/13 13:23:47;;;;;;;7.53;2.17;;;;;;;;;;8192973;28;20077;-69
2022/04/13 13:27:49;;;;;;;7.55;2.42;;;;;;;;;;8196151;28;20333;-69
2022/04/13 13:31:49;;;;;;;6.68;2.25;;;;;;;;;;8191513;28;20046;-69
2022/04/13 13:35:49;;;;;;;4.00;2.00;;;;;;;;;;8196692;28;20022;-69
2022/04/13 13:39:49;;;;;;;9.52;2.80;;;;;;;;;;8195322;28;20184;-69
2022/04/13 13:43:50;;;;;;;5.43;2.33;;;;;;;;;;8187954;28;20122;-70
2022/04/13 13:47:50;;;;;;;4.25;2.15;;;;;;;;;;8190494;28;20133;-69
2022/04/13 13:51:51;;;;;;;4.05;1.88;;;;;;;;;;8189969;28;20137;-69
2022/04/13 13:55:51;;;;;;;7.82;2.38;;;;;;;;;;8191724;28;20035;-69
2022/04/13 13:59:51;;;;;;;5.15;1.90;;;;;;;;;;8191317;28;20758;-69
2022/04/13 14:03:52;;;;;;;5.47;2.38;;;;;;;;;;8191009;28;21033;-69
2022/04/13 14:07:53;;;;;;;6.38;2.10;;;;;;;;;;8193248;28;20034;-69
2022/04/13 14:11:53;;;;;;;3.88;1.88;;;;;;;;;;8190682;28;20029;-69
2022/04/13 14:15:53;;;;;;;4.18;1.80;;;;;;;;;;8190154;28;20039;-69
2022/04/13 14:19:53;;;;;;;4.73;2.00;;;;;;;;;;8189271;28;20089;-69
2022/04/13 14:23:53;;;;;;;4.95;1.90;;;;;;;;;;8189165;28;20053;-70
2022/04/13 14:27:54;;;;;;;6.37;2.00;;;;;;;;;;8189199;28;20035;-69
2022/04/13 14:31:54;;;;;;;8.53;2.07;;;;;;;;;;8177933;28;20340;-69
2022/04/13 14:35:54;;;;;;;5.80;1.88;;;;;;;;;;8189108;28;20873;-69
2022/04/13 14:39:55;;;;;;;10.90;2.08;;;;;;;;;;8191783;28;20046;-69
2022/04/13 14:43:55;;;;;;;6.85;2.10;;;;;;;;;;8189226;28;20412;-69
2022/04/13 14:47:55;;;;;;;6.68;2.00;;;;;;;;;;8190991;28;21001;-70
2022/04/13 14:51:57;;;;;;;7.03;2.13;;;;;;;;;;8189017;28;21479;-70
2022/04/13 14:55:57;;;;;;;5.18;1.88;;;;;;;;;;8190101;28;20293;-70
2022/04/13 14:59:58;;;;;;;8.77;2.17;;;;;;;;;;8189440;28;20763;-70
2022/04/13 15:03:59;;;;;;;5.15;2.00;;;;;;;;;;8190133;28;20034;-70
2022/04/13 15:07:59;;;;;;;4.90;1.80;;;;;;;;;;8188713;28;20023;-70
2022/04/13 15:12:01;;;;;;;7.15;2.15;;;;;;;;;;8185708;28;20022;-70
2022/04/13 15:16:01;;;;;;;6.00;1.90;;;;;;;;;;8188907;28;20035;-70
2022/04/13 15:20:01;;;;;;;6.25;2.05;;;;;;;;;;8186571;28;20023;-70
2022/04/13 15:24:02;;;;;;;11.47;2.20;;;;;;;;;;8190265;28;20021;-70
2022/04/13 15:28:02;;;;;;;5.40;1.80;;;;;;;;;;8188936;28;20684;-70
2022/04/13 15:32:03;;;;;;;4.70;1.57;;;;;;;;;;8184189;28;20046;-69
2022/04/13 15:36:04;;;;;;;4.40;1.50;;;;;;;;;;8189235;28;20720;-69
2022/04/13 15:40:05;;;;;;;4.95;1.80;;;;;;;;;;8190042;28;20081;-69
2022/04/13 15:44:05;;;;;;;4.28;1.77;;;;;;;;;;8191365;28;20026;-70
2022/04/13 15:48:06;;;;;;;5.63;2.10;;;;;;;;;;8197891;28;20178;-69
2022/04/13 15:52:06;;;;;;;7.50;1.98;;;;;;;;;;8195431;28;20031;-69
2022/04/13 15:56:06;;;;;;;6.82;1.73;;;;;;;;;;8197841;28;20038;-69
2022/04/13 16:00:07;;;;;;;3.83;1.65;;;;;;;;;;8195901;28;20027;-70
2022/04/13 16:04:07;;;;;;;6.25;2.08;;;;;;;;;;8195316;28;20102;-76
2022/04/13 16:08:07;;;;;;;8.13;2.08;;;;;;;;;;8197504;28;20019;-68
2022/04/13 16:12:07;;;;;;;9.20;1.77;;;;;;;;;;8196222;28;20034;-68
2022/04/13 16:16:08;;;;;;;3.43;1.60;;;;;;;;;;8195077;28;20051;-68
2022/04/13 16:20:08;;;;;;;5.40;1.92;;;;;;;;;;8197530;28;20292;-68
2022/04/13 16:24:08;;;;;;;3.47;1.55;;;;;;;;;;8199303;28;20440;-67
2022/04/13 16:28:09;;;;;;;4.85;1.50;;;;;;;;;;8195749;28;20559;-67
2022/04/13 16:32:09;;;;;;;12.48;1.75;;;;;;;;;;8194220;28;20033;-69
2022/04/13 16:36:09;;;;;;;7.50;1.70;;;;;;;;;;8197801;28;20682;-70
2022/04/13 16:40:09;;;;;;;4.72;1.92;;;;;;;;;;8190368;28;20035;-70
2022/04/13 16:44:11;;;;;;;4.20;1.77;;;;;;;;;;8194987;28;20832;-70
2022/04/13 16:48:11;;;;;;;12.45;2.00;;;;;;;;;;8192652;28;20046;-70
2022/04/13 16:52:13;;;;;;;9.27;2.10;;;;;;;;;;8193050;28;20117;-70
2022/04/13 16:56:13;;;;;;;5.93;1.75;;;;;;;;;;8193251;28;20899;-70
2022/04/13 17:00:14;;;;;;;7.10;2.10;;;;;;;;;;8192589;28;20037;-71
2022/04/13 17:04:16;;;;;;;4.50;1.70;;;;;;;;;;8192954;28;20053;-70
2022/04/13 17:08:16;;;;;;;4.60;1.60;;;;;;;;;;8194914;28;20027;-70
2022/04/13 17:12:17;;;;;;;5.10;1.70;;;;;;;;;;8184255;28;20220;-70
2022/04/13 17:16:19;;;;;;;4.77;1.50;;;;;;;;;;8192001;28;20819;-70
2022/04/13 17:20:20;;;;;;;4.97;1.50;;;;;;;;;;8192775;28;20031;-70
2022/04/13 17:24:20;;;;;;;1.50;1.30;;;;;;;;;;8193161;28;20065;-70
2022/04/13 17:28:21;;;;;;;5.05;1.45;;;;;;;;;;8192551;28;20031;-70
2022/04/13 17:32:22;;;;;;;3.55;1.70;;;;;;;;;;8191301;28;20151;-70
2022/04/13 17:36:22;;;;;;;5.88;1.63;;;;;;;;;;8191901;28;20026;-70
2022/04/13 17:40:23;;;;;;;4.55;1.42;;;;;;;;;;8192026;28;20112;-69
2022/04/13 17:44:23;;;;;;;6.33;1.40;;;;;;;;;;8193700;28;20197;-70
2022/04/13 17:48:24;;;;;;;2.57;1.43;;;;;;;;;;8190686;28;20039;-70
2022/04/13 17:52:25;;;;;;;12.15;2.15;;;;;;;;;;8190905;28;20034;-70
2022/04/13 17:56:25;;;;;;;4.93;1.60;;;;;;;;;;8191472;28;20093;-70
2022/04/13 18:00:26;;;;;;;4.50;1.83;;;;;;;;;;8192336;28;20035;-70
2022/04/13 18:04:27;;;;;;;5.28;1.60;;;;;;;;;;8190974;28;20026;-69
2022/04/13 18:08:27;;;;;;;6.70;1.20;;;;;;;;;;8191642;28;20027;-69
2022/04/13 18:12:27;;;;;;;4.10;1.52;;;;;;;;;;8190346;28;20643;-69
2022/04/13 18:16:27;;;;;;;5.20;1.50;;;;;;;;;;8188864;28;20169;-70
2022/04/13 18:20:28;;;;;;;4.72;1.63;;;;;;;;;;8190712;28;20038;-69
2022/04/13 18:24:28;;;;;;;2.17;1.40;;;;;;;;;;8189201;28;20031;-69
2022/04/13 18:28:30;;;;;;;10.15;2.03;;;;;;;;;;8190070;28;20022;-69
2022/04/13 18:32:30;;;;;;;4.38;1.65;;;;;;;;;;8188688;28;20035;-69
2022/04/13 18:36:31;;;;;;;3.92;1.65;;;;;;;;;;8189957;28;20057;-70
2022/04/13 18:40:31;;;;;;;5.38;1.80;;;;;;;;;;8188993;28;20104;-70
2022/04/13 18:44:31;;;;;;;6.18;1.60;;;;;;;;;;8191134;28;20588;-70
2022/04/13 18:48:32;;;;;;;6.80;1.77;;;;;;;;;;8188919;28;20765;-70
2022/04/13 18:52:33;;;;;;;7.20;1.90;;;;;;;;;;8185490;28;20499;-70
2022/04/13 18:56:33;;;;;;;4.45;1.60;;;;;;;;;;8189867;28;20280;-69
2022/04/13 19:00:33;;;;;;;7.87;1.70;;;;;;;;;;8188412;28;20035;-71
2022/04/13 19:04:34;;;;;;;7.72;1.50;;;;;;;;;;8190345;28;20034;-71
2022/04/13 19:08:39;;;;;;;6.55;1.50;;;;;;;;;;8191791;28;20090;-71
2022/04/13 19:12:40;;;;;;;9.07;1.95;;;;;;;;;;8188880;28;20062;-72
2022/04/13 19:16:40;;;;;;;7.30;2.17;;;;;;;;;;8190123;28;20039;-72
2022/04/13 19:20:41;;;;;;;7.03;1.80;;;;;;;;;;8189443;28;20085;-71
2022/04/13 19:24:41;;;;;;;6.85;1.95;;;;;;;;;;8190161;28;20503;-71
2022/04/13 19:28:41;;;;;;;10.30;2.33;;;;;;;;;;8191158;28;20035;-71
2022/04/13 19:32:42;;;;;;;5.88;2.00;;;;;;;;;;8180863;28;20149;-71
2022/04/13 19:36:42;;;;;;;12.68;2.50;;;;;;;;;;8190696;28;20019;-71
2022/04/13 19:40:43;;;;;;;6.80;2.20;;;;;;;;;;8189351;28;20501;-71
2022/04/13 19:44:45;;;;;;;6.93;2.50;;;;;;;;;;8193036;28;20042;-72
2022/04/13 19:48:47;;;;;;;9.73;2.33;;;;;;;;;;8191706;28;20038;-71
2022/04/13 19:52:47;;;;;;;10.40;2.50;;;;;;;;;;8190536;28;20879;-71
2022/04/13 19:56:47;;;;;;;10.10;2.55;;;;;;;;;;8189190;28;20035;-71
2022/04/13 20:00:50;;;;;;;8.77;2.60;;;;;;;;;;8189631;28;20432;-71
2022/04/13 20:04:50;;;;;;;10.95;3.00;;;;;;;;;;8187881;28;20031;-71
2022/04/13 20:08:50;;;;;;;10.15;2.67;;;;;;;;;;8191515;28;20034;-72
2022/04/13 20:12:51;;;;;;;7.50;2.40;;;;;;;;;;8190696;28;20086;-70
2022/04/13 20:16:51;;;;;;;8.85;2.83;;;;;;;;;;8188634;28;20729;-71
2022/04/13 20:20:51;;;;;;;6.97;2.45;;;;;;;;;;8189239;28;20030;-71
2022/04/13 20:24:52;;;;;;;8.40;2.95;;;;;;;;;;8190823;28;20026;-71
2022/04/13 20:28:52;;;;;;;10.68;3.33;;;;;;;;;;8193002;28;20141;-71
2022/04/13 20:32:52;;;;;;;8.75;2.80;;;;;;;;;;8197192;28;20045;-71
2022/04/13 20:36:53;;;;;;;8.17;2.70;;;;;;;;;;8194684;28;20774;-71
2022/04/13 20:40:53;;;;;;;12.60;3.03;;;;;;;;;;8194613;28;20286;-71
2022/04/13 20:44:53;;;;;;;6.17;2.60;;;;;;;;;;8197638;28;20027;-70
2022/04/13 20:48:54;;;;;;;10.67;3.20;;;;;;;;;;8196145;28;20039;-71
2022/04/13 20:52:54;;;;;;;11.30;2.88;;;;;;;;;;8197285;28;20018;-71
2022/04/13 20:56:55;;;;;;;6.97;2.95;;;;;;;;;;8196105;28;20043;-70
2022/04/13 21:00:55;;;;;;;11.02;2.63;;;;;;;;;;8195667;28;20046;-71
2022/04/13 21:04:55;;;;;;;6.53;2.67;;;;;;;;;;8198226;28;20073;-71
2022/04/13 21:08:58;;;;;;;7.70;3.10;;;;;;;;;;8197381;28;20026;-71
2022/04/13 21:12:59;;;;;;;7.80;2.67;;;;;;;;;;8209084;28;20022;-71
2022/04/13 21:16:59;;;;;;;7.25;3.00;;;;;;;;;;8195897;28;21078;-71
2022/04/13 21:20:59;;;;;;;14.15;3.22;;;;;;;;;;8195712;28;20027;-71
2022/04/13 21:25:00;;;;;;;8.17;3.00;;;;;;;;;;8195878;28;20507;-71
2022/04/13 21:29:01;;;;;;;8.00;3.17;;;;;;;;;;8193998;28;20026;-71
2022/04/13 21:33:01;;;;;;;13.30;3.47;;;;;;;;;;8196223;28;20157;-71
2022/04/13 21:37:01;;;;;;;8.07;3.17;;;;;;;;;;8196679;28;20353;-71
2022/04/13 21:41:01;;;;;;;10.23;3.75;;;;;;;;;;8198289;28;20030;-71
2022/04/13 21:45:02;;;;;;;12.43;3.67;;;;;;;;;;8192894;28;20030;-71
2022/04/13 21:49:02;;;;;;;5.93;3.37;;;;;;;;;;8193688;28;20027;-71
2022/04/13 21:53:02;;;;;;;12.30;3.80;;;;;;;;;;8195874;28;20281;-71
2022/04/13 21:57:03;;;;;;;10.70;4.30;;;;;;;;;;8176008;28;21203;-71
2022/04/13 22:01:03;;;;;;;14.15;4.18;;;;;;;;;;8195409;28;20336;-71
2022/04/13 22:05:03;;;;;;;10.88;4.68;;;;;;;;;;8196063;28;20126;-71
2022/04/13 22:09:03;;;;;;;8.18;4.03;;;;;;;;;;8195459;28;20029;-71
2022/04/13 22:13:04;;;;;;;8.60;4.40;;;;;;;;;;8195407;28;20026;-71
2022/04/13 22:17:04;;;;;;;12.90;4.93;;;;;;;;;;8193152;28;21109;-71
2022/04/13 22:21:04;;;;;;;9.07;4.63;;;;;;;;;;8195436;28;20031;-71
2022/04/13 22:25:05;;;;;;;15.33;5.40;;;;;;;;;;8195609;28;20027;-71
2022/04/13 22:29:05;;;;;;;10.63;5.63;;;;;;;;;;8176054;28;20029;-71
2022/04/13 22:33:06;;;;;;;12.27;5.07;;;;;;;;;;8195170;28;20049;-71
2022/04/13 22:37:06;;;;;;;14.00;5.60;;;;;;;;;;8195692;28;20031;-71
2022/04/13 22:41:06;;;;;;;9.63;6.43;;;;;;;;;;8193508;28;20903;-71
2022/04/13 22:45:06;;;;;;;10.70;5.82;;;;;;;;;;8191918;28;20105;-71
2022/04/13 22:49:07;;;;;;;9.45;6.13;;;;;;;;;;8193989;28;20027;-71
2022/04/13 22:53:07;;;;;;;12.10;6.83;;;;;;;;;;8192703;28;20038;-71
2022/04/13 22:57:07;;;;;;;14.85;7.05;;;;;;;;;;8192611;28;20125;-71
2022/04/13 23:01:07;;;;;;;9.90;6.57;;;;;;;;;;8191954;28;20069;-71
2022/04/13 23:05:08;;;;;;;13.57;7.60;;;;;;;;;;8192544;28;20144;-71
2022/04/13 23:09:08;;;;;;;14.23;7.40;;;;;;;;;;8193873;28;20030;-71
2022/04/13 23:13:08;;;;;;;16.20;8.13;;;;;;;;;;8194776;28;20850;-71
2022/04/13 23:17:08;;;;;;;15.43;9.18;;;;;;;;;;8193286;28;20043;-71
2022/04/13 23:21:09;;;;;;;14.35;9.07;;;;;;;;;;8176686;28;20440;-71
2022/04/13 23:25:09;;;;;;;14.38;9.00;;;;;;;;;;8192646;28;20019;-71
2022/04/13 23:29:09;;;;;;;16.57;9.67;;;;;;;;;;8192975;28;20023;-71
2022/04/13 23:33:09;;;;;;;14.63;10.43;;;;;;;;;;8192947;28;20129;-72
2022/04/13 23:37:10;;;;;;;18.35;11.88;;;;;;;;;;8195414;28;20070;-72
2022/04/13 23:41:10;;;;;;;16.95;11.15;;;;;;;;;;8192043;28;20046;-71
2022/04/13 23:45:10;;;;;;;19.27;13.18;;;;;;;;;;8182103;28;20121;-72
2022/04/13 23:49:10;;;;;;;15.75;11.77;;;;;;;;;;8182360;28;20109;-72
2022/04/13 23:53:10;;;;;;;23.03;12.80;;;;;;;;;;8192892;28;20030;-72
2022/04/13 23:57:11;;;;;;;17.65;12.07;;;;;;;;;;8192053;28;20294;-72
